Voidomatis — A8FX2 — position and weather

sailwx.info

Track history (hours):
 
Tides and Currents Weather Stations Pressure Air Temp Water Temp Dewpoint Dewpoint Depression Visibility Wind Speed Wind Dir Waves Ship Positions

Voidomatis

Last reported at 2017-Dec-07 14:31 UTC. Time now 2017-Dec-11 09:44 UTC.
Position N 37°54' W 030°29'.

Length 214 m; draft 11.9 m.

Type: Tanker. MMSI: 636012508.

Date/timePositionNaut miles runAvg speedWind from/ knotsBaromVisibWave heightAir tempDewpointWater temp
2017-Dec-07 14:31N 37°54' W 030°29'012.9
2017-Dec-07 14:30N 37°54' W 030°29'5 9.9
2017-Dec-07 13:59N 37°54' W 030°23'910.0
2017-Dec-07 13:07N 37°56' W 030°12'210.6
2017-Dec-07 12:55N 37°56' W 030°09'610.4
2017-Dec-07 12:23N 37°57' W 030°02'410.5
2017-Dec-07 12:00N 37°57' W 029°57'611.2
2017-Dec-07 11:30N 37°58' W 029°50'611.2
2017-Dec-07 11:00N 37°59' W 029°43'510.6
2017-Dec-07 10:30N 37°60' W 029°37'510.8
2017-Dec-07 10:00N 38°01' W 029°30'511.0
2017-Dec-07 09:31N 38°02' W 029°23'611.5
2017-Dec-07 09:00N 38°03' W 029°16'611.5
2017-Dec-07 08:30N 38°03' W 029°09'611.2
2017-Dec-07 08:01N 38°04' W 029°02'611.7
2017-Dec-07 07:30N 38°05' W 028°54'611.7
2017-Dec-07 07:00N 38°06' W 028°47'611.7
2017-Dec-07 06:30N 38°07' W 028°40'611.7
2017-Dec-07 06:00N 38°08' W 028°32'611.9
2017-Dec-07 05:30N 38°09' W 028°25'612.1
2017-Dec-07 05:00N 38°10' W 028°17'612.2
2017-Dec-07 04:30N 38°11' W 028°09'612.0
2017-Dec-07 04:01N 38°11' W 028°02'611.7
2017-Dec-07 03:30N 38°12' W 027°55'611.6
2017-Dec-07 03:00N 38°13' W 027°47'611.5
2017-Dec-07 02:30N 38°14' W 027°40'611.5
2017-Dec-07 02:00N 38°15' W 027°33'611.9
2017-Dec-07 01:30N 38°16' W 027°25'612.4
2017-Dec-07 01:01N 38°17' W 027°18'612.0
2017-Dec-07 00:30N 38°19' W 027°10'611.9
2017-Dec-07 00:01N 38°21' W 027°03'612.3
2017-Dec-06 23:30N 38°24' W 026°56'612.6
2017-Dec-06 23:00N 38°27' W 026°49'612.7
2017-Dec-06 22:30N 38°30' W 026°42'612.3
2017-Dec-06 22:00N 38°34' W 026°36'612.2
2017-Dec-06 21:30N 38°37' W 026°29'612.5
2017-Dec-06 21:00N 38°40' W 026°22'  
2017-Dec-03 00:38N 48°43' W 006°40'13612.4
2017-Dec-02 13:41N 49°46' W 003°37'312.9
2017-Dec-02 13:26N 49°48' W 003°32'613.5
2017-Dec-02 12:58N 49°50' W 003°24'814.2
2017-Dec-02 12:26N 49°54' W 003°13'614.6
2017-Dec-02 12:00N 49°57' W 003°05'714.8
2017-Dec-02 11:30N 49°60' W 002°54'714.8
2017-Dec-02 11:01N 50°02' W 002°43'2413.6
2017-Dec-02 09:16N 50°08' W 002°07'611.8
2017-Dec-02 08:48N 50°10' W 001°59'311.2
2017-Dec-02 08:30N 50°10' W 001°54'510.5
2017-Dec-02 07:59N 50°12' W 001°46'5 9.9
2017-Dec-02 07:31N 50°13' W 001°39'5 9.6
2017-Dec-02 06:58N 50°15' W 001°31'4 9.3
2017-Dec-02 06:31N 50°16' W 001°24'5 9.3
2017-Dec-02 06:00N 50°17' W 001°17'5 9.5
2017-Dec-02 05:30N 50°18' W 001°10'3012.0
2017-Dec-02 03:02N 50°26' W 000°25'013.7
2017-Dec-02 03:00N 50°26' W 000°25'713.7
2017-Dec-02 02:30N 50°28' W 000°15'713.9
2017-Dec-02 02:00N 50°31' W 000°04'714.0
2017-Dec-02 01:30N 50°32' E 000°06'714.0
2017-Dec-02 01:00N 50°34' E 000°17'713.8
2017-Dec-02 00:30N 50°36' E 000°28'713.2
2017-Dec-02 00:00N 50°38' E 000°37'713.1
2017-Dec-01 23:30N 50°42' E 000°45'612.5
2017-Dec-01 23:00N 50°46' E 000°53'611.8
2017-Dec-01 22:28N 50°50' E 001°01'911.3
2017-Dec-01 21:40N 50°56' E 001°12'957.6
2017-Dec-01 21:30N 51°02' E 001°23'1 1.5
2017-Dec-01 20:54N 51°01' E 001°21'511.6
2017-Dec-01 20:31N 51°04' E 001°27'612.8
2017-Dec-01 20:00N 51°08' E 001°35'713.4
2017-Dec-01 19:30N 51°12' E 001°44'714.5
2017-Dec-01 19:01N 51°18' E 001°49'714.8
2017-Dec-01 18:30N 51°25' E 001°55'714.7
2017-Dec-01 18:01N 51°31' E 002°01'714.4
2017-Dec-01 17:29N 51°37' E 002°10'23111.7
2017-Nov-30 21:46N 54°55' E 005°30'412.4
2017-Nov-30 21:25N 54°58' E 005°34'512.2
2017-Nov-30 21:00N 55°03' E 005°39'612.3
2017-Nov-30 20:29N 55°08' E 005°45'612.3
2017-Nov-30 20:01N 55°13' E 005°51'612.3
2017-Nov-30 19:30N 55°18' E 005°57'612.2
2017-Nov-30 18:59N 55°23' E 006°03'612.1
2017-Nov-30 18:30N 55°28' E 006°09'612.1
2017-Nov-30 18:00N 55°33' E 006°14'612.1
2017-Nov-30 17:29N 55°38' E 006°20'612.1
2017-Nov-30 16:59N 55°44' E 006°26'612.1
2017-Nov-30 16:30N 55°49' E 006°31'612.1
2017-Nov-30 16:00N 55°54' E 006°37'612.1
2017-Nov-30 15:30N 55°59' E 006°43'612.0
2017-Nov-30 14:59N 56°04' E 006°49'611.9
2017-Nov-30 14:30N 56°09' E 006°55'611.9
2017-Nov-30 14:00N 56°14' E 007°01'612.0
2017-Nov-30 13:29N 56°19' E 007°07'611.9
2017-Nov-30 12:59N 56°24' E 007°13'611.9
2017-Nov-30 12:29N 56°29' E 007°19'611.9
2017-Nov-30 12:01N 56°34' E 007°24'611.8
2017-Nov-30 11:30N 56°39' E 007°30'611.8
2017-Nov-30 10:59N 56°44' E 007°36'611.8
2017-Nov-30 10:30N 56°49' E 007°41'10211.8
2017-Nov-30 01:52N 57°50' E 010°12'512.5
2017-Nov-30 01:30N 57°50' E 010°21'612.6
2017-Nov-30 01:00N 57°50' E 010°33'810.9
2017-Nov-30 00:16N 57°47' E 010°47'2 8.9
2017-Nov-30 00:01N 57°45' E 010°50'5 8.9
2017-Nov-29 23:30N 57°43' E 010°43'2 3.8
2017-Nov-29 22:56N 57°42' E 010°39'0 0.1
2017-Nov-29 22:20N 57°42' E 010°39'0 0.1
2017-Nov-29 21:56N 57°42' E 010°39'0 0.1
2017-Nov-29 21:29N 57°42' E 010°39'0 0.0
2017-Nov-29 20:56N 57°42' E 010°39'0 0.0
2017-Nov-29 20:26N 57°42' E 010°39'0 0.2
2017-Nov-29 19:53N 57°42' E 010°39'0 0.1
2017-Nov-29 19:29N 57°42' E 010°39'0 0.0
2017-Nov-29 18:56N 57°42' E 010°39'0 0.0
2017-Nov-29 18:29N 57°42' E 010°39'0 0.0
2017-Nov-29 17:59N 57°42' E 010°39'0 0.0
2017-Nov-29 17:29N 57°42' E 010°39'0 0.1
2017-Nov-29 16:59N 57°42' E 010°39'0 0.1
2017-Nov-29 16:29N 57°42' E 010°39'0 0.1
2017-Nov-29 15:59N 57°42' E 010°39'0 0.1
2017-Nov-29 15:29N 57°42' E 010°39'0 0.1
2017-Nov-29 14:56N 57°42' E 010°39'0 0.1
2017-Nov-29 14:29N 57°42' E 010°39'0 0.0
2017-Nov-29 12:56N 57°42' E 010°39'0 0.0
2017-Nov-29 12:29N 57°42' E 010°39'0 0.0
2017-Nov-29 11:17N 57°42' E 010°39'0 0.0
2017-Nov-29 10:59N 57°42' E 010°39'0 0.0
2017-Nov-29 10:29N 57°42' E 010°39'0 0.2
2017-Nov-29 09:47N 57°42' E 010°39'0 0.4
2017-Nov-29 09:30N 57°42' E 010°39'3 6.3
2017-Nov-29 09:00N 57°43' E 010°45'4 8.5
2017-Nov-29 08:30N 57°41' E 010°52'510.7
2017-Nov-29 08:00N 57°37' E 010°59'611.7
2017-Nov-29 07:30N 57°33' E 011°07'612.2
2017-Nov-29 07:00N 57°31' E 011°17'611.6
2017-Nov-29 06:30N 57°28' E 011°27'612.4
2017-Nov-29 06:00N 57°22' E 011°30'612.5
2017-Nov-29 05:30N 57°16' E 011°34'612.5
2017-Nov-29 05:00N 57°10' E 011°38'612.3
2017-Nov-29 04:30N 57°05' E 011°42'10910.6
2017-Nov-28 18:11N 55°18' E 011°03'311.7
2017-Nov-28 17:58N 55°15' E 011°05'5 9.9
2017-Nov-28 17:30N 55°11' E 011°03'610.5
2017-Nov-28 16:58N 55°06' E 010°59'511.0
2017-Nov-28 16:30N 55°01' E 010°59'510.9
2017-Nov-28 16:00N 54°56' E 010°53'1111.3
2017-Nov-28 15:00N 54°45' E 010°48'5 9.9
2017-Nov-28 14:30N 54°41' E 010°47'510.8
2017-Nov-28 14:00N 54°38' E 010°55'611.1
2017-Nov-28 13:30N 54°36' E 011°04'510.8
2017-Nov-28 13:00N 54°35' E 011°13'611.2
2017-Nov-28 12:30N 54°33' E 011°22'611.3
2017-Nov-28 12:00N 54°30' E 011°30'611.2
2017-Nov-28 11:30N 54°28' E 011°40'611.1
2017-Nov-28 11:00N 54°27' E 011°49'1311.1
2017-Nov-28 09:52N 54°27' E 012°10'511.2
2017-Nov-28 09:24N 54°31' E 012°14'410.3
2017-Nov-28 08:59N 54°35' E 012°17'4 8.2
2017-Nov-28 08:30N 54°38' E 012°21'5910.8
2017-Nov-28 03:03N 55°02' E 013°55'310.9
2017-Nov-28 02:46N 55°03' E 014°00'410.5
2017-Nov-28 02:21N 55°06' E 014°07'410.6
2017-Nov-28 02:00N 55°08' E 014°12'510.7
2017-Nov-28 01:30N 55°12' E 014°18'510.7
2017-Nov-28 01:00N 55°16' E 014°23'610.6
2017-Nov-28 00:29N 55°21' E 014°29'510.5
2017-Nov-28 00:00N 55°25' E 014°34'510.3
2017-Nov-27 23:30N 55°28' E 014°40'510.4
2017-Nov-27 23:00N 55°31' E 014°49'610.4
2017-Nov-27 22:25N 55°33' E 014°59'410.5
2017-Nov-27 22:00N 55°35' E 015°05'510.3
2017-Nov-27 21:30N 55°37' E 015°14'510.1
2017-Nov-27 21:00N 55°39' E 015°22'510.0
2017-Nov-27 20:30N 55°40' E 015°31'510.0
2017-Nov-27 20:00N 55°41' E 015°39'5 9.9
2017-Nov-27 19:30N 55°42' E 015°48'510.4
2017-Nov-27 19:00N 55°44' E 015°57'611.2
2017-Nov-27 18:30N 55°45' E 016°07'611.4
2017-Nov-27 18:00N 55°46' E 016°16'611.6
2017-Nov-27 17:30N 55°48' E 016°26'611.7
2017-Nov-27 17:00N 55°49' E 016°37'611.7
2017-Nov-27 16:29N 55°50' E 016°47'  
Track history (hours):
 
Tides and Currents Weather Stations Pressure Air Temp Water Temp Dewpoint Dewpoint Depression Visibility Wind Speed Wind Dir Waves Ship Positions

Voidomatis

Last reported at 2017-Dec-07 14:31 UTC. Time now 2017-Dec-11 09:44 UTC.
Position N 37°54' W 030°29'.

Length 214 m; draft 11.9 m.

Type: Tanker. MMSI: 636012508.

Date/timePositionNaut miles runAvg speedWind from/ knotsBaromVisibWave heightAir tempDewpointWater temp
2017-Dec-07 14:31N 37°54' W 030°29'012.9
2017-Dec-07 14:30N 37°54' W 030°29'5 9.9
2017-Dec-07 13:59N 37°54' W 030°23'910.0
2017-Dec-07 13:07N 37°56' W 030°12'210.6
2017-Dec-07 12:55N 37°56' W 030°09'610.4
2017-Dec-07 12:23N 37°57' W 030°02'410.5
2017-Dec-07 12:00N 37°57' W 029°57'611.2
2017-Dec-07 11:30N 37°58' W 029°50'611.2
2017-Dec-07 11:00N 37°59' W 029°43'510.6
2017-Dec-07 10:30N 37°60' W 029°37'510.8
2017-Dec-07 10:00N 38°01' W 029°30'511.0
2017-Dec-07 09:31N 38°02' W 029°23'611.5
2017-Dec-07 09:00N 38°03' W 029°16'611.5
2017-Dec-07 08:30N 38°03' W 029°09'611.2
2017-Dec-07 08:01N 38°04' W 029°02'611.7
2017-Dec-07 07:30N 38°05' W 028°54'611.7
2017-Dec-07 07:00N 38°06' W 028°47'611.7
2017-Dec-07 06:30N 38°07' W 028°40'611.7
2017-Dec-07 06:00N 38°08' W 028°32'611.9
2017-Dec-07 05:30N 38°09' W 028°25'612.1
2017-Dec-07 05:00N 38°10' W 028°17'612.2
2017-Dec-07 04:30N 38°11' W 028°09'612.0
2017-Dec-07 04:01N 38°11' W 028°02'611.7
2017-Dec-07 03:30N 38°12' W 027°55'611.6
2017-Dec-07 03:00N 38°13' W 027°47'611.5
2017-Dec-07 02:30N 38°14' W 027°40'611.5
2017-Dec-07 02:00N 38°15' W 027°33'611.9
2017-Dec-07 01:30N 38°16' W 027°25'612.4
2017-Dec-07 01:01N 38°17' W 027°18'612.0
2017-Dec-07 00:30N 38°19' W 027°10'611.9
2017-Dec-07 00:01N 38°21' W 027°03'612.3
2017-Dec-06 23:30N 38°24' W 026°56'612.6
2017-Dec-06 23:00N 38°27' W 026°49'612.7
2017-Dec-06 22:30N 38°30' W 026°42'612.3
2017-Dec-06 22:00N 38°34' W 026°36'612.2
2017-Dec-06 21:30N 38°37' W 026°29'612.5
2017-Dec-06 21:00N 38°40' W 026°22'  
2017-Dec-03 00:38N 48°43' W 006°40'13612.4
2017-Dec-02 13:41N 49°46' W 003°37'312.9
2017-Dec-02 13:26N 49°48' W 003°32'613.5
2017-Dec-02 12:58N 49°50' W 003°24'814.2
2017-Dec-02 12:26N 49°54' W 003°13'614.6
2017-Dec-02 12:00N 49°57' W 003°05'714.8
2017-Dec-02 11:30N 49°60' W 002°54'714.8
2017-Dec-02 11:01N 50°02' W 002°43'2413.6
2017-Dec-02 09:16N 50°08' W 002°07'611.8
2017-Dec-02 08:48N 50°10' W 001°59'311.2
2017-Dec-02 08:30N 50°10' W 001°54'510.5
2017-Dec-02 07:59N 50°12' W 001°46'5 9.9
2017-Dec-02 07:31N 50°13' W 001°39'5 9.6
2017-Dec-02 06:58N 50°15' W 001°31'4 9.3
2017-Dec-02 06:31N 50°16' W 001°24'5 9.3
2017-Dec-02 06:00N 50°17' W 001°17'5 9.5
2017-Dec-02 05:30N 50°18' W 001°10'3012.0
2017-Dec-02 03:02N 50°26' W 000°25'013.7
2017-Dec-02 03:00N 50°26' W 000°25'713.7
2017-Dec-02 02:30N 50°28' W 000°15'713.9
2017-Dec-02 02:00N 50°31' W 000°04'714.0
2017-Dec-02 01:30N 50°32' E 000°06'714.0
2017-Dec-02 01:00N 50°34' E 000°17'713.8
2017-Dec-02 00:30N 50°36' E 000°28'713.2
2017-Dec-02 00:00N 50°38' E 000°37'713.1
2017-Dec-01 23:30N 50°42' E 000°45'612.5
2017-Dec-01 23:00N 50°46' E 000°53'611.8
2017-Dec-01 22:28N 50°50' E 001°01'911.3
2017-Dec-01 21:40N 50°56' E 001°12'957.6
2017-Dec-01 21:30N 51°02' E 001°23'1 1.5
2017-Dec-01 20:54N 51°01' E 001°21'511.6
2017-Dec-01 20:31N 51°04' E 001°27'612.8
2017-Dec-01 20:00N 51°08' E 001°35'713.4
2017-Dec-01 19:30N 51°12' E 001°44'714.5
2017-Dec-01 19:01N 51°18' E 001°49'714.8
2017-Dec-01 18:30N 51°25' E 001°55'714.7
2017-Dec-01 18:01N 51°31' E 002°01'714.4
2017-Dec-01 17:29N 51°37' E 002°10'23111.7
2017-Nov-30 21:46N 54°55' E 005°30'412.4
2017-Nov-30 21:25N 54°58' E 005°34'512.2
2017-Nov-30 21:00N 55°03' E 005°39'612.3
2017-Nov-30 20:29N 55°08' E 005°45'612.3
2017-Nov-30 20:01N 55°13' E 005°51'612.3
2017-Nov-30 19:30N 55°18' E 005°57'612.2
2017-Nov-30 18:59N 55°23' E 006°03'612.1
2017-Nov-30 18:30N 55°28' E 006°09'612.1
2017-Nov-30 18:00N 55°33' E 006°14'612.1
2017-Nov-30 17:29N 55°38' E 006°20'612.1
2017-Nov-30 16:59N 55°44' E 006°26'612.1
2017-Nov-30 16:30N 55°49' E 006°31'612.1
2017-Nov-30 16:00N 55°54' E 006°37'612.1
2017-Nov-30 15:30N 55°59' E 006°43'612.0
2017-Nov-30 14:59N 56°04' E 006°49'611.9
2017-Nov-30 14:30N 56°09' E 006°55'611.9
2017-Nov-30 14:00N 56°14' E 007°01'612.0
2017-Nov-30 13:29N 56°19' E 007°07'611.9
2017-Nov-30 12:59N 56°24' E 007°13'611.9
2017-Nov-30 12:29N 56°29' E 007°19'611.9
2017-Nov-30 12:01N 56°34' E 007°24'611.8
2017-Nov-30 11:30N 56°39' E 007°30'611.8
2017-Nov-30 10:59N 56°44' E 007°36'611.8
2017-Nov-30 10:30N 56°49' E 007°41'10211.8
2017-Nov-30 01:52N 57°50' E 010°12'512.5
2017-Nov-30 01:30N 57°50' E 010°21'612.6
2017-Nov-30 01:00N 57°50' E 010°33'810.9
2017-Nov-30 00:16N 57°47' E 010°47'2 8.9
2017-Nov-30 00:01N 57°45' E 010°50'5 8.9
2017-Nov-29 23:30N 57°43' E 010°43'2 3.8
2017-Nov-29 22:56N 57°42' E 010°39'0 0.1
2017-Nov-29 22:20N 57°42' E 010°39'0 0.1
2017-Nov-29 21:56N 57°42' E 010°39'0 0.1
2017-Nov-29 21:29N 57°42' E 010°39'0 0.0
2017-Nov-29 20:56N 57°42' E 010°39'0 0.0
2017-Nov-29 20:26N 57°42' E 010°39'0 0.2
2017-Nov-29 19:53N 57°42' E 010°39'0 0.1
2017-Nov-29 19:29N 57°42' E 010°39'0 0.0
2017-Nov-29 18:56N 57°42' E 010°39'0 0.0
2017-Nov-29 18:29N 57°42' E 010°39'0 0.0
2017-Nov-29 17:59N 57°42' E 010°39'0 0.0
2017-Nov-29 17:29N 57°42' E 010°39'0 0.1
2017-Nov-29 16:59N 57°42' E 010°39'0 0.1
2017-Nov-29 16:29N 57°42' E 010°39'0 0.1
2017-Nov-29 15:59N 57°42' E 010°39'0 0.1
2017-Nov-29 15:29N 57°42' E 010°39'0 0.1
2017-Nov-29 14:56N 57°42' E 010°39'0 0.1
2017-Nov-29 14:29N 57°42' E 010°39'0 0.0
2017-Nov-29 12:56N 57°42' E 010°39'0 0.0
2017-Nov-29 12:29N 57°42' E 010°39'0 0.0
2017-Nov-29 11:17N 57°42' E 010°39'0 0.0
2017-Nov-29 10:59N 57°42' E 010°39'0 0.0
2017-Nov-29 10:29N 57°42' E 010°39'0 0.2
2017-Nov-29 09:47N 57°42' E 010°39'0 0.4
2017-Nov-29 09:30N 57°42' E 010°39'3 6.3
2017-Nov-29 09:00N 57°43' E 010°45'4 8.5
2017-Nov-29 08:30N 57°41' E 010°52'510.7
2017-Nov-29 08:00N 57°37' E 010°59'611.7
2017-Nov-29 07:30N 57°33' E 011°07'612.2
2017-Nov-29 07:00N 57°31' E 011°17'611.6
2017-Nov-29 06:30N 57°28' E 011°27'612.4
2017-Nov-29 06:00N 57°22' E 011°30'612.5
2017-Nov-29 05:30N 57°16' E 011°34'612.5
2017-Nov-29 05:00N 57°10' E 011°38'612.3
2017-Nov-29 04:30N 57°05' E 011°42'10910.6
2017-Nov-28 18:11N 55°18' E 011°03'311.7
2017-Nov-28 17:58N 55°15' E 011°05'5 9.9
2017-Nov-28 17:30N 55°11' E 011°03'610.5
2017-Nov-28 16:58N 55°06' E 010°59'511.0
2017-Nov-28 16:30N 55°01' E 010°59'510.9
2017-Nov-28 16:00N 54°56' E 010°53'1111.3
2017-Nov-28 15:00N 54°45' E 010°48'5 9.9
2017-Nov-28 14:30N 54°41' E 010°47'510.8
2017-Nov-28 14:00N 54°38' E 010°55'611.1
2017-Nov-28 13:30N 54°36' E 011°04'510.8
2017-Nov-28 13:00N 54°35' E 011°13'611.2
2017-Nov-28 12:30N 54°33' E 011°22'611.3
2017-Nov-28 12:00N 54°30' E 011°30'611.2
2017-Nov-28 11:30N 54°28' E 011°40'611.1
2017-Nov-28 11:00N 54°27' E 011°49'1311.1
2017-Nov-28 09:52N 54°27' E 012°10'511.2
2017-Nov-28 09:24N 54°31' E 012°14'410.3
2017-Nov-28 08:59N 54°35' E 012°17'4 8.2
2017-Nov-28 08:30N 54°38' E 012°21'5910.8
2017-Nov-28 03:03N 55°02' E 013°55'310.9
2017-Nov-28 02:46N 55°03' E 014°00'410.5
2017-Nov-28 02:21N 55°06' E 014°07'410.6
2017-Nov-28 02:00N 55°08' E 014°12'510.7
2017-Nov-28 01:30N 55°12' E 014°18'510.7
2017-Nov-28 01:00N 55°16' E 014°23'610.6
2017-Nov-28 00:29N 55°21' E 014°29'510.5
2017-Nov-28 00:00N 55°25' E 014°34'510.3
2017-Nov-27 23:30N 55°28' E 014°40'510.4
2017-Nov-27 23:00N 55°31' E 014°49'610.4
2017-Nov-27 22:25N 55°33' E 014°59'410.5
2017-Nov-27 22:00N 55°35' E 015°05'510.3
2017-Nov-27 21:30N 55°37' E 015°14'510.1
2017-Nov-27 21:00N 55°39' E 015°22'510.0
2017-Nov-27 20:30N 55°40' E 015°31'510.0
2017-Nov-27 20:00N 55°41' E 015°39'5 9.9
2017-Nov-27 19:30N 55°42' E 015°48'510.4
2017-Nov-27 19:00N 55°44' E 015°57'611.2
2017-Nov-27 18:30N 55°45' E 016°07'611.4
2017-Nov-27 18:00N 55°46' E 016°16'611.6
2017-Nov-27 17:30N 55°48' E 016°26'611.7
2017-Nov-27 17:00N 55°49' E 016°37'611.7
2017-Nov-27 16:29N 55°50' E 016°47'  

Dump ship's entire track history